sensor_id;sensor_type;location;lat;lon;timestamp;temperature;humidity
18229;DHT22;9239;50.932;3.142;2023-03-23T00:01:01;12.50;99.90
18229;DHT22;9239;50.932;3.142;2023-03-23T00:03:28;12.50;99.90
18229;DHT22;9239;50.932;3.142;2023-03-23T00:05:58;12.50;99.90
18229;DHT22;9239;50.932;3.142;2023-03-23T00:08:28;12.40;99.90
18229;DHT22;9239;50.932;3.142;2023-03-23T00:10:55;12.40;99.90
18229;DHT22;9239;50.932;3.142;2023-03-23T00:13:23;12.40;99.90
18229;DHT22;9239;50.932;3.142;2023-03-23T00:15:50;12.40;99.90
18229;DHT22;9239;50.932;3.142;2023-03-23T00:18:18;12.30;99.90
18229;DHT22;9239;50.932;3.142;2023-03-23T00:20:48;12.40;99.90
18229;DHT22;9239;50.932;3.142;2023-03-23T00:23:17;12.30;99.90
18229;DHT22;9239;50.932;3.142;2023-03-23T00:25:46;12.30;99.90
18229;DHT22;9239;50.932;3.142;2023-03-23T00:28:13;12.20;99.90
18229;DHT22;9239;50.932;3.142;2023-03-23T00:30:40;12.20;99.90
18229;DHT22;9239;50.932;3.142;2023-03-23T00:33:10;12.20;99.90
18229;DHT22;9239;50.932;3.142;2023-03-23T00:35:38;12.20;99.90
18229;DHT22;9239;50.932;3.142;2023-03-23T00:38:05;12.30;99.90
18229;DHT22;9239;50.932;3.142;2023-03-23T00:40:33;12.20;99.90
18229;DHT22;9239;50.932;3.142;2023-03-23T00:43:01;12.30;99.90
18229;DHT22;9239;50.932;3.142;2023-03-23T00:45:29;12.30;99.90
18229;DHT22;9239;50.932;3.142;2023-03-23T00:47:57;12.30;99.90
18229;DHT22;9239;50.932;3.142;2023-03-23T00:50:28;12.30;99.90
18229;DHT22;9239;50.932;3.142;2023-03-23T00:52:55;12.40;99.90
18229;DHT22;9239;50.932;3.142;2023-03-23T00:55:23;12.30;99.90
18229;DHT22;9239;50.932;3.142;2023-03-23T00:57:51;12.30;99.90
18229;DHT22;9239;50.932;3.142;2023-03-23T01:00:19;12.30;99.90
18229;DHT22;9239;50.932;3.142;2023-03-23T01:02:48;12.30;99.90
18229;DHT22;9239;50.932;3.142;2023-03-23T01:05:17;12.30;99.90
18229;DHT22;9239;50.932;3.142;2023-03-23T01:07:44;12.30;99.90
18229;DHT22;9239;50.932;3.142;2023-03-23T01:10:11;12.40;99.90
18229;DHT22;9239;50.932;3.142;2023-03-23T01:12:42;12.40;99.90
18229;DHT22;9239;50.932;3.142;2023-03-23T01:15:14;12.40;99.90
18229;DHT22;9239;50.932;3.142;2023-03-23T01:17:41;12.40;99.90
18229;DHT22;9239;50.932;3.142;2023-03-23T01:20:09;12.40;99.90
18229;DHT22;9239;50.932;3.142;2023-03-23T01:22:36;12.40;99.90
18229;DHT22;9239;50.932;3.142;2023-03-23T01:25:04;12.30;99.90
18229;DHT22;9239;50.932;3.142;2023-03-23T01:27:31;12.30;99.90
18229;DHT22;9239;50.932;3.142;2023-03-23T01:29:57;12.40;99.90
18229;DHT22;9239;50.932;3.142;2023-03-23T01:32:26;12.30;99.90
18229;DHT22;9239;50.932;3.142;2023-03-23T01:34:53;12.30;99.90
18229;DHT22;9239;50.932;3.142;2023-03-23T01:37:20;12.30;99.90
18229;DHT22;9239;50.932;3.142;2023-03-23T01:39:52;12.30;99.90
18229;DHT22;9239;50.932;3.142;2023-03-23T01:42:21;12.30;99.90
18229;DHT22;9239;50.932;3.142;2023-03-23T01:45:21;12.40;99.90
18229;DHT22;9239;50.932;3.142;2023-03-23T01:47:52;12.40;99.90
18229;DHT22;9239;50.932;3.142;2023-03-23T01:50:22;12.40;99.90
18229;DHT22;9239;50.932;3.142;2023-03-23T01:52:51;12.40;99.90
18229;DHT22;9239;50.932;3.142;2023-03-23T01:55:19;12.40;99.90
18229;DHT22;9239;50.932;3.142;2023-03-23T01:57:47;12.40;99.90
18229;DHT22;9239;50.932;3.142;2023-03-23T02:00:15;12.40;99.90
18229;DHT22;9239;50.932;3.142;2023-03-23T02:02:44;12.40;99.90
18229;DHT22;9239;50.932;3.142;2023-03-23T02:05:18;12.40;99.90
18229;DHT22;9239;50.932;3.142;2023-03-23T02:07:47;12.50;99.90
18229;DHT22;9239;50.932;3.142;2023-03-23T02:10:15;12.50;99.90
18229;DHT22;9239;50.932;3.142;2023-03-23T02:12:42;12.50;99.90
18229;DHT22;9239;50.932;3.142;2023-03-23T02:15:10;12.50;99.90
18229;DHT22;9239;50.932;3.142;2023-03-23T02:17:41;12.50;99.90
18229;DHT22;9239;50.932;3.142;2023-03-23T02:20:38;12.50;99.90
18229;DHT22;9239;50.932;3.142;2023-03-23T02:23:33;12.50;99.90
18229;DHT22;9239;50.932;3.142;2023-03-23T02:26:30;12.50;99.90
18229;DHT22;9239;50.932;3.142;2023-03-23T02:29:13;12.50;99.90
18229;DHT22;9239;50.932;3.142;2023-03-23T02:31:56;12.50;99.90
18229;DHT22;9239;50.932;3.142;2023-03-23T02:34:32;12.50;99.90
18229;DHT22;9239;50.932;3.142;2023-03-23T02:37:02;12.50;99.90
18229;DHT22;9239;50.932;3.142;2023-03-23T02:39:33;12.50;99.90
18229;DHT22;9239;50.932;3.142;2023-03-23T02:42:04;12.50;99.90
18229;DHT22;9239;50.932;3.142;2023-03-23T02:44:33;12.50;99.90
18229;DHT22;9239;50.932;3.142;2023-03-23T02:47:04;12.50;99.90
18229;DHT22;9239;50.932;3.142;2023-03-23T02:49:35;12.50;99.90
18229;DHT22;9239;50.932;3.142;2023-03-23T02:52:06;12.40;99.90
18229;DHT22;9239;50.932;3.142;2023-03-23T02:54:34;12.40;99.90
18229;DHT22;9239;50.932;3.142;2023-03-23T02:57:02;12.40;99.90
18229;DHT22;9239;50.932;3.142;2023-03-23T02:59:29;12.30;99.90
18229;DHT22;9239;50.932;3.142;2023-03-23T03:02:01;12.30;99.90
18229;DHT22;9239;50.932;3.142;2023-03-23T03:04:33;12.20;99.90
18229;DHT22;9239;50.932;3.142;2023-03-23T03:10:09;12.00;99.90
18229;DHT22;9239;50.932;3.142;2023-03-23T03:12:46;12.00;99.90
18229;DHT22;9239;50.932;3.142;2023-03-23T03:15:21;12.00;99.90
18229;DHT22;9239;50.932;3.142;2023-03-23T03:17:56;12.00;99.90
18229;DHT22;9239;50.932;3.142;2023-03-23T03:20:28;12.10;99.90
18229;DHT22;9239;50.932;3.142;2023-03-23T03:22:56;12.10;99.90
18229;DHT22;9239;50.932;3.142;2023-03-23T03:25:24;12.20;99.90
18229;DHT22;9239;50.932;3.142;2023-03-23T03:27:53;12.10;99.90
18229;DHT22;9239;50.932;3.142;2023-03-23T03:30:26;12.20;99.90
18229;DHT22;9239;50.932;3.142;2023-03-23T03:32:56;12.20;99.90
18229;DHT22;9239;50.932;3.142;2023-03-23T03:35:27;12.20;99.90
18229;DHT22;9239;50.932;3.142;2023-03-23T03:37:54;12.20;99.90
18229;DHT22;9239;50.932;3.142;2023-03-23T03:40:22;12.10;99.90
18229;DHT22;9239;50.932;3.142;2023-03-23T03:42:50;12.10;99.90
18229;DHT22;9239;50.932;3.142;2023-03-23T03:45:18;12.20;99.90
18229;DHT22;9239;50.932;3.142;2023-03-23T03:47:45;12.20;99.90
18229;DHT22;9239;50.932;3.142;2023-03-23T03:50:12;12.20;99.90
18229;DHT22;9239;50.932;3.142;2023-03-23T03:52:40;12.20;99.90
18229;DHT22;9239;50.932;3.142;2023-03-23T03:55:09;12.30;99.90
18229;DHT22;9239;50.932;3.142;2023-03-23T03:57:37;12.30;99.90
18229;DHT22;9239;50.932;3.142;2023-03-23T04:00:05;12.20;99.90
18229;DHT22;9239;50.932;3.142;2023-03-23T04:02:40;12.20;99.90
18229;DHT22;9239;50.932;3.142;2023-03-23T04:05:07;12.20;99.90
18229;DHT22;9239;50.932;3.142;2023-03-23T04:07:35;12.20;99.90
18229;DHT22;9239;50.932;3.142;2023-03-23T04:10:06;12.20;99.90
18229;DHT22;9239;50.932;3.142;2023-03-23T04:12:33;12.20;99.90
18229;DHT22;9239;50.932;3.142;2023-03-23T04:15:01;12.20;99.90
18229;DHT22;9239;50.932;3.142;2023-03-23T04:17:28;12.20;99.90
18229;DHT22;9239;50.932;3.142;2023-03-23T04:19:55;12.10;99.90
18229;DHT22;9239;50.932;3.142;2023-03-23T04:22:24;12.10;99.90
18229;DHT22;9239;50.932;3.142;2023-03-23T04:24:57;12.00;99.90
18229;DHT22;9239;50.932;3.142;2023-03-23T04:27:28;12.00;99.90
18229;DHT22;9239;50.932;3.142;2023-03-23T04:29:55;11.90;99.90
18229;DHT22;9239;50.932;3.142;2023-03-23T04:32:23;11.90;99.90
18229;DHT22;9239;50.932;3.142;2023-03-23T04:34:55;11.90;99.90
18229;DHT22;9239;50.932;3.142;2023-03-23T04:37:21;11.90;99.90
18229;DHT22;9239;50.932;3.142;2023-03-23T04:39:51;11.90;99.90
18229;DHT22;9239;50.932;3.142;2023-03-23T04:42:27;11.80;99.90
18229;DHT22;9239;50.932;3.142;2023-03-23T04:44:55;11.70;99.90
18229;DHT22;9239;50.932;3.142;2023-03-23T04:47:22;11.70;99.90
18229;DHT22;9239;50.932;3.142;2023-03-23T04:49:49;11.60;99.90
18229;DHT22;9239;50.932;3.142;2023-03-23T04:52:16;11.60;99.90
18229;DHT22;9239;50.932;3.142;2023-03-23T04:54:43;11.40;99.90
18229;DHT22;9239;50.932;3.142;2023-03-23T04:57:10;11.40;99.90
18229;DHT22;9239;50.932;3.142;2023-03-23T04:59:39;11.30;99.90
18229;DHT22;9239;50.932;3.142;2023-03-23T05:02:06;11.30;99.90
18229;DHT22;9239;50.932;3.142;2023-03-23T05:04:33;11.20;99.90
18229;DHT22;9239;50.932;3.142;2023-03-23T05:07:00;11.10;99.90
18229;DHT22;9239;50.932;3.142;2023-03-23T05:09:26;11.10;99.90
18229;DHT22;9239;50.932;3.142;2023-03-23T05:11:53;11.00;99.90
18229;DHT22;9239;50.932;3.142;2023-03-23T05:14:20;10.90;99.90
18229;DHT22;9239;50.932;3.142;2023-03-23T05:16:49;10.80;99.90
18229;DHT22;9239;50.932;3.142;2023-03-23T05:19:17;10.80;99.90
18229;DHT22;9239;50.932;3.142;2023-03-23T05:21:44;10.70;99.90
18229;DHT22;9239;50.932;3.142;2023-03-23T05:24:11;10.70;99.90
18229;DHT22;9239;50.932;3.142;2023-03-23T05:26:38;10.60;99.90
18229;DHT22;9239;50.932;3.142;2023-03-23T05:29:05;10.50;99.90
18229;DHT22;9239;50.932;3.142;2023-03-23T05:31:31;10.40;99.90
18229;DHT22;9239;50.932;3.142;2023-03-23T05:34:00;10.30;99.90
18229;DHT22;9239;50.932;3.142;2023-03-23T05:36:26;10.30;99.90
18229;DHT22;9239;50.932;3.142;2023-03-23T05:38:54;10.30;99.90
18229;DHT22;9239;50.932;3.142;2023-03-23T05:41:22;10.20;99.90
18229;DHT22;9239;50.932;3.142;2023-03-23T05:43:49;10.20;99.90
18229;DHT22;9239;50.932;3.142;2023-03-23T05:46:17;10.20;99.90
18229;DHT22;9239;50.932;3.142;2023-03-23T05:48:44;10.10;99.90
18229;DHT22;9239;50.932;3.142;2023-03-23T05:51:12;10.10;99.90
18229;DHT22;9239;50.932;3.142;2023-03-23T05:53:39;10.20;99.90
18229;DHT22;9239;50.932;3.142;2023-03-23T05:56:06;10.20;99.90
18229;DHT22;9239;50.932;3.142;2023-03-23T05:58:33;10.10;99.90
18229;DHT22;9239;50.932;3.142;2023-03-23T06:01:00;10.20;99.90
18229;DHT22;9239;50.932;3.142;2023-03-23T06:03:27;10.20;99.90
18229;DHT22;9239;50.932;3.142;2023-03-23T06:05:54;10.20;99.90
18229;DHT22;9239;50.932;3.142;2023-03-23T06:08:22;10.20;99.90
18229;DHT22;9239;50.932;3.142;2023-03-23T06:10:49;10.20;99.90
18229;DHT22;9239;50.932;3.142;2023-03-23T06:13:18;10.20;99.90
18229;DHT22;9239;50.932;3.142;2023-03-23T06:15:45;10.10;99.90
18229;DHT22;9239;50.932;3.142;2023-03-23T06:18:13;10.20;99.90
18229;DHT22;9239;50.932;3.142;2023-03-23T06:20:40;10.10;99.90
18229;DHT22;9239;50.932;3.142;2023-03-23T06:23:07;10.20;99.90
18229;DHT22;9239;50.932;3.142;2023-03-23T06:25:35;10.10;99.90
18229;DHT22;9239;50.932;3.142;2023-03-23T06:28:03;10.10;99.90
18229;DHT22;9239;50.932;3.142;2023-03-23T06:30:30;10.10;99.90
18229;DHT22;9239;50.932;3.142;2023-03-23T06:32:56;10.10;99.90
18229;DHT22;9239;50.932;3.142;2023-03-23T06:35:23;10.10;99.90
18229;DHT22;9239;50.932;3.142;2023-03-23T06:37:50;10.10;99.90
18229;DHT22;9239;50.932;3.142;2023-03-23T06:40:19;10.10;99.90
18229;DHT22;9239;50.932;3.142;2023-03-23T06:42:48;10.00;99.90
18229;DHT22;9239;50.932;3.142;2023-03-23T06:45:15;10.10;99.90
18229;DHT22;9239;50.932;3.142;2023-03-23T06:47:45;10.10;99.90
18229;DHT22;9239;50.932;3.142;2023-03-23T06:50:14;10.10;99.90
18229;DHT22;9239;50.932;3.142;2023-03-23T06:52:41;10.10;99.90
18229;DHT22;9239;50.932;3.142;2023-03-23T06:55:11;10.10;99.90
18229;DHT22;9239;50.932;3.142;2023-03-23T06:57:38;10.10;99.90
18229;DHT22;9239;50.932;3.142;2023-03-23T07:00:08;10.30;99.90
18229;DHT22;9239;50.932;3.142;2023-03-23T07:02:37;10.20;99.90
18229;DHT22;9239;50.932;3.142;2023-03-23T07:05:05;10.20;99.90
18229;DHT22;9239;50.932;3.142;2023-03-23T07:07:32;10.20;99.90
18229;DHT22;9239;50.932;3.142;2023-03-23T07:09:59;10.20;99.90
18229;DHT22;9239;50.932;3.142;2023-03-23T07:12:26;10.30;99.90
18229;DHT22;9239;50.932;3.142;2023-03-23T07:14:54;10.20;99.90
18229;DHT22;9239;50.932;3.142;2023-03-23T07:17:22;10.20;99.90
18229;DHT22;9239;50.932;3.142;2023-03-23T07:19:49;10.20;99.90
18229;DHT22;9239;50.932;3.142;2023-03-23T07:22:17;10.20;99.90
18229;DHT22;9239;50.932;3.142;2023-03-23T07:24:43;10.10;99.90
18229;DHT22;9239;50.932;3.142;2023-03-23T07:27:10;10.20;99.90
18229;DHT22;9239;50.932;3.142;2023-03-23T07:29:37;10.20;99.90
18229;DHT22;9239;50.932;3.142;2023-03-23T07:32:05;10.20;99.90
18229;DHT22;9239;50.932;3.142;2023-03-23T07:34:34;10.30;99.90
18229;DHT22;9239;50.932;3.142;2023-03-23T07:37:01;10.30;99.90
18229;DHT22;9239;50.932;3.142;2023-03-23T07:39:28;10.40;99.90
18229;DHT22;9239;50.932;3.142;2023-03-23T07:41:55;10.50;99.90
18229;DHT22;9239;50.932;3.142;2023-03-23T07:44:22;10.50;99.90
18229;DHT22;9239;50.932;3.142;2023-03-23T07:46:49;10.60;99.90
18229;DHT22;9239;50.932;3.142;2023-03-23T07:49:17;10.70;99.90
18229;DHT22;9239;50.932;3.142;2023-03-23T07:51:46;10.70;99.90
18229;DHT22;9239;50.932;3.142;2023-03-23T07:54:13;10.80;99.90
18229;DHT22;9239;50.932;3.142;2023-03-23T07:56:41;10.90;99.90
18229;DHT22;9239;50.932;3.142;2023-03-23T07:59:10;11.00;99.90
18229;DHT22;9239;50.932;3.142;2023-03-23T08:01:38;11.10;99.90
18229;DHT22;9239;50.932;3.142;2023-03-23T08:04:05;11.20;99.90
18229;DHT22;9239;50.932;3.142;2023-03-23T08:06:33;11.30;99.90
18229;DHT22;9239;50.932;3.142;2023-03-23T08:09:02;11.40;99.90
18229;DHT22;9239;50.932;3.142;2023-03-23T08:11:33;11.50;99.90
18229;DHT22;9239;50.932;3.142;2023-03-23T08:14:00;11.50;99.90
18229;DHT22;9239;50.932;3.142;2023-03-23T08:16:28;11.60;99.90
18229;DHT22;9239;50.932;3.142;2023-03-23T08:18:54;11.60;99.90
18229;DHT22;9239;50.932;3.142;2023-03-23T08:21:22;11.70;99.90
18229;DHT22;9239;50.932;3.142;2023-03-23T08:23:49;11.80;99.90
18229;DHT22;9239;50.932;3.142;2023-03-23T08:26:17;11.80;99.90
18229;DHT22;9239;50.932;3.142;2023-03-23T08:28:44;11.80;99.90
18229;DHT22;9239;50.932;3.142;2023-03-23T08:31:13;12.00;99.90
18229;DHT22;9239;50.932;3.142;2023-03-23T08:33:40;12.10;99.90
18229;DHT22;9239;50.932;3.142;2023-03-23T08:36:08;12.20;99.90
18229;DHT22;9239;50.932;3.142;2023-03-23T08:38:35;12.20;99.90
18229;DHT22;9239;50.932;3.142;2023-03-23T08:41:04;12.20;99.90
18229;DHT22;9239;50.932;3.142;2023-03-23T08:43:35;12.20;99.90
18229;DHT22;9239;50.932;3.142;2023-03-23T08:46:03;12.20;99.90
18229;DHT22;9239;50.932;3.142;2023-03-23T08:48:34;12.30;99.90
18229;DHT22;9239;50.932;3.142;2023-03-23T08:51:02;12.30;99.90
18229;DHT22;9239;50.932;3.142;2023-03-23T08:53:29;12.30;99.90
18229;DHT22;9239;50.932;3.142;2023-03-23T08:56:02;12.30;99.90
18229;DHT22;9239;50.932;3.142;2023-03-23T08:58:29;12.30;99.90
18229;DHT22;9239;50.932;3.142;2023-03-23T09:00:58;12.50;99.90
18229;DHT22;9239;50.932;3.142;2023-03-23T09:03:25;12.50;99.90
18229;DHT22;9239;50.932;3.142;2023-03-23T09:05:52;12.70;99.90
18229;DHT22;9239;50.932;3.142;2023-03-23T09:08:19;12.70;99.90
18229;DHT22;9239;50.932;3.142;2023-03-23T09:10:46;12.90;99.90
18229;DHT22;9239;50.932;3.142;2023-03-23T09:13:15;13.00;99.90
18229;DHT22;9239;50.932;3.142;2023-03-23T09:15:42;13.00;99.90
18229;DHT22;9239;50.932;3.142;2023-03-23T09:18:10;13.00;99.90
18229;DHT22;9239;50.932;3.142;2023-03-23T09:20:38;13.00;99.90
18229;DHT22;9239;50.932;3.142;2023-03-23T09:23:05;13.10;99.90
18229;DHT22;9239;50.932;3.142;2023-03-23T09:25:32;13.10;99.90
18229;DHT22;9239;50.932;3.142;2023-03-23T09:27:59;13.20;99.90
18229;DHT22;9239;50.932;3.142;2023-03-23T09:30:27;13.30;99.90
18229;DHT22;9239;50.932;3.142;2023-03-23T09:32:56;13.40;99.90
18229;DHT22;9239;50.932;3.142;2023-03-23T09:35:28;13.50;99.90
18229;DHT22;9239;50.932;3.142;2023-03-23T09:37:57;13.50;99.90
18229;DHT22;9239;50.932;3.142;2023-03-23T09:40:32;13.70;99.90
18229;DHT22;9239;50.932;3.142;2023-03-23T09:43:18;13.80;99.90
18229;DHT22;9239;50.932;3.142;2023-03-23T09:45:51;13.80;99.90
18229;DHT22;9239;50.932;3.142;2023-03-23T09:48:33;13.70;99.90
18229;DHT22;9239;50.932;3.142;2023-03-23T09:51:17;13.80;99.90
18229;DHT22;9239;50.932;3.142;2023-03-23T09:53:48;13.80;99.90
18229;DHT22;9239;50.932;3.142;2023-03-23T09:56:19;13.90;99.90
18229;DHT22;9239;50.932;3.142;2023-03-23T09:58:50;13.90;99.90
18229;DHT22;9239;50.932;3.142;2023-03-23T10:01:22;13.80;99.90
18229;DHT22;9239;50.932;3.142;2023-03-23T10:03:52;14.00;99.90
18229;DHT22;9239;50.932;3.142;2023-03-23T10:06:23;14.30;99.90
18229;DHT22;9239;50.932;3.142;2023-03-23T10:08:52;14.60;99.90
18229;DHT22;9239;50.932;3.142;2023-03-23T10:11:27;14.70;99.90
18229;DHT22;9239;50.932;3.142;2023-03-23T10:14:08;14.60;99.90
18229;DHT22;9239;50.932;3.142;2023-03-23T10:16:40;14.50;99.90
18229;DHT22;9239;50.932;3.142;2023-03-23T10:19:11;14.40;99.90
18229;DHT22;9239;50.932;3.142;2023-03-23T10:21:42;14.40;99.90
18229;DHT22;9239;50.932;3.142;2023-03-23T10:24:15;14.30;99.90
18229;DHT22;9239;50.932;3.142;2023-03-23T10:26:50;14.30;99.90
18229;DHT22;9239;50.932;3.142;2023-03-23T10:29:22;14.40;99.90
18229;DHT22;9239;50.932;3.142;2023-03-23T10:31:56;14.50;99.90
18229;DHT22;9239;50.932;3.142;2023-03-23T10:34:30;14.90;99.90
18229;DHT22;9239;50.932;3.142;2023-03-23T10:37:04;15.10;99.90
18229;DHT22;9239;50.932;3.142;2023-03-23T10:39:42;15.20;99.90
18229;DHT22;9239;50.932;3.142;2023-03-23T10:42:10;15.10;99.90
18229;DHT22;9239;50.932;3.142;2023-03-23T10:44:37;14.80;99.90
18229;DHT22;9239;50.932;3.142;2023-03-23T10:47:06;14.70;99.90
18229;DHT22;9239;50.932;3.142;2023-03-23T10:49:37;14.80;99.90
18229;DHT22;9239;50.932;3.142;2023-03-23T10:52:17;14.90;99.90
18229;DHT22;9239;50.932;3.142;2023-03-23T10:54:54;14.90;99.90
18229;DHT22;9239;50.932;3.142;2023-03-23T10:57:24;14.80;99.90
18229;DHT22;9239;50.932;3.142;2023-03-23T10:59:58;14.60;99.90
18229;DHT22;9239;50.932;3.142;2023-03-23T11:02:26;14.40;99.90
18229;DHT22;9239;50.932;3.142;2023-03-23T11:04:56;14.10;99.90
18229;DHT22;9239;50.932;3.142;2023-03-23T11:07:30;13.90;99.90
18229;DHT22;9239;50.932;3.142;2023-03-23T11:10:06;13.70;99.90
18229;DHT22;9239;50.932;3.142;2023-03-23T11:12:35;13.50;99.90
18229;DHT22;9239;50.932;3.142;2023-03-23T11:15:15;13.40;99.90
18229;DHT22;9239;50.932;3.142;2023-03-23T11:17:43;13.20;99.90
18229;DHT22;9239;50.932;3.142;2023-03-23T11:20:11;13.20;99.90
18229;DHT22;9239;50.932;3.142;2023-03-23T11:22:39;13.40;99.90
18229;DHT22;9239;50.932;3.142;2023-03-23T11:25:12;13.70;99.90
18229;DHT22;9239;50.932;3.142;2023-03-23T11:27:40;14.10;99.90
18229;DHT22;9239;50.932;3.142;2023-03-23T11:30:10;14.40;99.90
18229;DHT22;9239;50.932;3.142;2023-03-23T11:32:42;14.60;99.90
18229;DHT22;9239;50.932;3.142;2023-03-23T11:35:19;14.60;99.90
18229;DHT22;9239;50.932;3.142;2023-03-23T11:37:50;14.80;99.90
18229;DHT22;9239;50.932;3.142;2023-03-23T11:40:19;15.20;99.90
18229;DHT22;9239;50.932;3.142;2023-03-23T11:42:49;15.30;99.90
18229;DHT22;9239;50.932;3.142;2023-03-23T11:45:21;15.50;99.90
18229;DHT22;9239;50.932;3.142;2023-03-23T11:48:02;15.40;99.90
18229;DHT22;9239;50.932;3.142;2023-03-23T11:50:33;15.50;99.90
18229;DHT22;9239;50.932;3.142;2023-03-23T11:53:08;15.80;99.90
18229;DHT22;9239;50.932;3.142;2023-03-23T11:55:52;16.10;99.90
18229;DHT22;9239;50.932;3.142;2023-03-23T11:58:21;16.10;99.90
18229;DHT22;9239;50.932;3.142;2023-03-23T12:00:51;16.20;99.90
18229;DHT22;9239;50.932;3.142;2023-03-23T12:03:43;16.30;99.90
18229;DHT22;9239;50.932;3.142;2023-03-23T12:06:16;16.50;99.90
18229;DHT22;9239;50.932;3.142;2023-03-23T12:08:57;16.50;99.90
18229;DHT22;9239;50.932;3.142;2023-03-23T12:11:31;16.60;99.90
18229;DHT22;9239;50.932;3.142;2023-03-23T12:14:09;16.60;99.90
18229;DHT22;9239;50.932;3.142;2023-03-23T12:16:50;16.60;99.90
18229;DHT22;9239;50.932;3.142;2023-03-23T12:19:25;16.60;99.90
18229;DHT22;9239;50.932;3.142;2023-03-23T12:22:02;16.60;99.90
18229;DHT22;9239;50.932;3.142;2023-03-23T12:24:43;16.70;99.90
18229;DHT22;9239;50.932;3.142;2023-03-23T12:27:19;16.60;99.90
18229;DHT22;9239;50.932;3.142;2023-03-23T12:30:04;16.70;99.90
18229;DHT22;9239;50.932;3.142;2023-03-23T12:32:46;16.70;99.90
18229;DHT22;9239;50.932;3.142;2023-03-23T12:35:27;16.60;99.90
18229;DHT22;9239;50.932;3.142;2023-03-23T12:38:12;16.40;99.90
18229;DHT22;9239;50.932;3.142;2023-03-23T12:40:54;16.20;99.90
18229;DHT22;9239;50.932;3.142;2023-03-23T12:43:28;16.10;99.90
18229;DHT22;9239;50.932;3.142;2023-03-23T12:46:13;16.10;99.90
18229;DHT22;9239;50.932;3.142;2023-03-23T12:48:44;16.20;99.90
18229;DHT22;9239;50.932;3.142;2023-03-23T12:51:18;16.20;99.90
18229;DHT22;9239;50.932;3.142;2023-03-23T12:53:53;16.10;99.90
18229;DHT22;9239;50.932;3.142;2023-03-23T12:56:28;16.20;99.90
18229;DHT22;9239;50.932;3.142;2023-03-23T12:59:03;16.40;99.90
18229;DHT22;9239;50.932;3.142;2023-03-23T13:01:34;16.40;99.90
18229;DHT22;9239;50.932;3.142;2023-03-23T13:04:11;16.40;99.90
18229;DHT22;9239;50.932;3.142;2023-03-23T13:06:40;16.30;99.90
18229;DHT22;9239;50.932;3.142;2023-03-23T13:09:13;16.10;99.90
18229;DHT22;9239;50.932;3.142;2023-03-23T13:11:43;16.10;99.90
18229;DHT22;9239;50.932;3.142;2023-03-23T13:14:31;16.00;99.90
18229;DHT22;9239;50.932;3.142;2023-03-23T13:17:06;15.90;99.90
18229;DHT22;9239;50.932;3.142;2023-03-23T13:20:11;15.90;99.90
18229;DHT22;9239;50.932;3.142;2023-03-23T13:22:45;16.00;99.90
18229;DHT22;9239;50.932;3.142;2023-03-23T13:25:18;16.10;99.90
18229;DHT22;9239;50.932;3.142;2023-03-23T13:27:57;16.20;99.90
18229;DHT22;9239;50.932;3.142;2023-03-23T13:30:25;16.30;99.90
18229;DHT22;9239;50.932;3.142;2023-03-23T13:33:02;16.40;99.90
18229;DHT22;9239;50.932;3.142;2023-03-23T13:35:34;16.50;99.90
18229;DHT22;9239;50.932;3.142;2023-03-23T13:38:02;16.60;99.90
18229;DHT22;9239;50.932;3.142;2023-03-23T13:40:41;16.60;99.90
18229;DHT22;9239;50.932;3.142;2023-03-23T13:43:11;16.70;99.90
18229;DHT22;9239;50.932;3.142;2023-03-23T13:45:44;16.70;99.90
18229;DHT22;9239;50.932;3.142;2023-03-23T13:48:21;16.80;99.90
18229;DHT22;9239;50.932;3.142;2023-03-23T13:50:52;16.90;99.90
18229;DHT22;9239;50.932;3.142;2023-03-23T13:53:25;17.00;99.90
18229;DHT22;9239;50.932;3.142;2023-03-23T13:56:06;16.90;99.90
18229;DHT22;9239;50.932;3.142;2023-03-23T13:58:45;16.80;99.90
18229;DHT22;9239;50.932;3.142;2023-03-23T14:01:16;16.80;99.90
18229;DHT22;9239;50.932;3.142;2023-03-23T14:03:46;17.10;99.90
18229;DHT22;9239;50.932;3.142;2023-03-23T14:06:18;17.30;99.90
18229;DHT22;9239;50.932;3.142;2023-03-23T14:08:49;17.50;99.90
18229;DHT22;9239;50.932;3.142;2023-03-23T14:11:20;17.30;99.90
18229;DHT22;9239;50.932;3.142;2023-03-23T14:14:01;17.10;99.90
18229;DHT22;9239;50.932;3.142;2023-03-23T14:16:35;16.90;99.90
18229;DHT22;9239;50.932;3.142;2023-03-23T14:19:04;16.90;99.90
18229;DHT22;9239;50.932;3.142;2023-03-23T14:21:41;16.90;99.90
18229;DHT22;9239;50.932;3.142;2023-03-23T14:24:11;16.80;99.90
18229;DHT22;9239;50.932;3.142;2023-03-23T14:26:39;16.80;99.90
18229;DHT22;9239;50.932;3.142;2023-03-23T14:29:11;16.80;99.90
18229;DHT22;9239;50.932;3.142;2023-03-23T14:31:38;16.80;99.90
18229;DHT22;9239;50.932;3.142;2023-03-23T14:34:20;16.70;99.90
18229;DHT22;9239;50.932;3.142;2023-03-23T14:36:48;16.70;99.90
18229;DHT22;9239;50.932;3.142;2023-03-23T14:39:21;16.80;99.90
18229;DHT22;9239;50.932;3.142;2023-03-23T14:41:49;16.80;99.90
18229;DHT22;9239;50.932;3.142;2023-03-23T14:44:33;16.80;99.90
18229;DHT22;9239;50.932;3.142;2023-03-23T14:47:02;16.80;99.90
18229;DHT22;9239;50.932;3.142;2023-03-23T14:49:34;16.80;99.90
18229;DHT22;9239;50.932;3.142;2023-03-23T14:52:08;16.90;99.90
18229;DHT22;9239;50.932;3.142;2023-03-23T14:54:36;16.80;99.90
18229;DHT22;9239;50.932;3.142;2023-03-23T14:57:12;16.60;99.90
18229;DHT22;9239;50.932;3.142;2023-03-23T14:59:41;16.50;99.90
18229;DHT22;9239;50.932;3.142;2023-03-23T15:02:14;16.20;99.90
18229;DHT22;9239;50.932;3.142;2023-03-23T15:04:43;16.10;99.90
18229;DHT22;9239;50.932;3.142;2023-03-23T15:07:11;16.00;99.90
18229;DHT22;9239;50.932;3.142;2023-03-23T15:09:42;16.00;99.90
18229;DHT22;9239;50.932;3.142;2023-03-23T15:12:20;16.00;99.90
18229;DHT22;9239;50.932;3.142;2023-03-23T15:14:51;16.10;99.90
18229;DHT22;9239;50.932;3.142;2023-03-23T15:17:19;16.10;99.90
18229;DHT22;9239;50.932;3.142;2023-03-23T15:19:47;16.20;99.90
18229;DHT22;9239;50.932;3.142;2023-03-23T15:22:19;16.30;99.90
18229;DHT22;9239;50.932;3.142;2023-03-23T15:24:46;16.50;99.90
18229;DHT22;9239;50.932;3.142;2023-03-23T15:27:16;16.60;99.90
18229;DHT22;9239;50.932;3.142;2023-03-23T15:29:49;16.60;99.90
18229;DHT22;9239;50.932;3.142;2023-03-23T15:32:22;16.50;99.90
18229;DHT22;9239;50.932;3.142;2023-03-23T15:34:49;16.10;99.90
18229;DHT22;9239;50.932;3.142;2023-03-23T15:37:19;15.90;99.90
18229;DHT22;9239;50.932;3.142;2023-03-23T15:39:47;15.60;99.90
18229;DHT22;9239;50.932;3.142;2023-03-23T15:42:22;15.40;99.90
18229;DHT22;9239;50.932;3.142;2023-03-23T15:44:58;15.40;99.90
18229;DHT22;9239;50.932;3.142;2023-03-23T15:47:35;15.40;99.90
18229;DHT22;9239;50.932;3.142;2023-03-23T15:50:04;15.40;99.90
18229;DHT22;9239;50.932;3.142;2023-03-23T15:52:34;15.40;99.90
18229;DHT22;9239;50.932;3.142;2023-03-23T15:55:01;15.60;99.90
18229;DHT22;9239;50.932;3.142;2023-03-23T15:57:28;15.70;99.90
18229;DHT22;9239;50.932;3.142;2023-03-23T15:59:56;15.70;99.90
18229;DHT22;9239;50.932;3.142;2023-03-23T16:02:24;15.80;99.90
18229;DHT22;9239;50.932;3.142;2023-03-23T16:04:51;15.70;99.90
18229;DHT22;9239;50.932;3.142;2023-03-23T16:07:21;15.70;99.90
18229;DHT22;9239;50.932;3.142;2023-03-23T16:09:48;15.60;99.90